createdAt,value
2022-09-04T00:02:35.787Z,95002.59
2022-09-04T00:05:12.391Z,95011.91
2022-09-04T00:08:06.997Z,95007.38
2022-09-04T00:10:40.715Z,95005.69
2022-09-04T00:13:31.306Z,95015.59
2022-09-04T00:16:10.373Z,95013.06
2022-09-04T00:18:41.671Z,95016.28
2022-09-04T00:21:29.176Z,95019.44
2022-09-04T00:23:58.463Z,95019.34
2022-09-04T00:26:49.304Z,95024.13
2022-09-04T00:29:51.633Z,95014.72
2022-09-04T00:32:40.507Z,95017.28
2022-09-04T00:35:31.638Z,95024.44
2022-09-04T00:38:02.213Z,95014.91
2022-09-04T00:40:41.007Z,95010.75
2022-09-04T00:43:26.354Z,95006.44
2022-09-04T00:46:16.477Z,95020.47
2022-09-04T00:49:02.055Z,95017.56
2022-09-04T00:52:07.008Z,95011.03
2022-09-04T00:54:54.098Z,95005.28
2022-09-04T00:57:50.126Z,95003.81
2022-09-04T01:00:21.042Z,95004.59
2022-09-04T01:03:04.114Z,94998.72
2022-09-04T01:05:55.219Z,95006.06
2022-09-04T01:08:56.021Z,95008.63
2022-09-04T01:11:43.601Z,95015.50
2022-09-04T01:14:14.772Z,95021.22
2022-09-04T01:16:46.955Z,95022.38
2022-09-04T01:19:50.030Z,95029.41
2022-09-04T01:22:36.798Z,95024.31
2022-09-04T01:25:29.881Z,95022.88
2022-09-04T01:28:08.101Z,95025.13
2022-09-04T01:30:42.067Z,95015.38
2022-09-04T01:33:29.781Z,95001.38
2022-09-04T01:36:02.798Z,95002.31
2022-09-04T01:38:44.252Z,95010.28
2022-09-04T01:41:16.217Z,95004.88
2022-09-04T01:43:43.353Z,95006.47
2022-09-04T01:46:48.376Z,95005.81
2022-09-04T01:49:36.956Z,95005.63
2022-09-04T01:52:24.086Z,95006.59
2022-09-04T01:54:57.225Z,95004.00
2022-09-04T01:57:50.432Z,94997.00
2022-09-04T02:00:20.177Z,95002.59
2022-09-04T02:03:22.758Z,95003.53
2022-09-04T02:06:24.787Z,95002.41
2022-09-04T02:09:15.606Z,94997.31
2022-09-04T02:11:49.206Z,94993.34
2022-09-04T02:14:54.774Z,94993.16
2022-09-04T02:17:34.108Z,94985.34
2022-09-04T02:20:09.517Z,94994.94
2022-09-04T02:22:50.610Z,94990.78
2022-09-04T02:25:29.189Z,94983.94
2022-09-04T02:28:22.178Z,94980.91
2022-09-04T02:30:56.704Z,94981.84
2022-09-04T02:33:36.915Z,94974.97
2022-09-04T02:36:24.011Z,94974.31
2022-09-04T02:39:11.055Z,94975.13
2022-09-04T02:41:51.283Z,94982.63
2022-09-04T02:44:38.373Z,94991.91
2022-09-04T02:47:13.673Z,94994.94
2022-09-04T02:50:16.011Z,94994.78
2022-09-04T02:53:14.706Z,94996.06
2022-09-04T02:55:57.853Z,95004.19
2022-09-04T02:58:44.429Z,94999.28
2022-09-04T03:01:15.105Z,95008.53
2022-09-04T03:04:00.737Z,95009.03
2022-09-04T03:06:48.772Z,95011.75
2022-09-04T03:09:36.263Z,95011.25
2022-09-04T03:12:15.790Z,95009.66
2022-09-04T03:14:46.991Z,95012.22
2022-09-04T03:17:24.039Z,95009.50
2022-09-04T03:19:54.044Z,95012.69
2022-09-04T03:22:27.807Z,94999.59
2022-09-04T03:25:21.743Z,94991.66
2022-09-04T03:27:48.666Z,94995.16
2022-09-04T03:30:15.717Z,95012.22
2022-09-04T03:32:48.745Z,95013.50
2022-09-04T03:35:21.656Z,95018.13
2022-09-04T03:38:22.610Z,95023.41
2022-09-04T03:40:57.786Z,95020.03
2022-09-04T03:43:36.441Z,95023.06
2022-09-04T03:46:17.096Z,95029.91
2022-09-04T03:48:52.450Z,95030.56
2022-09-04T03:51:25.826Z,95036.78
2022-09-04T03:54:08.014Z,95037.72
2022-09-04T03:56:57.860Z,95034.22
2022-09-04T04:00:04.546Z,95034.88
2022-09-04T04:02:58.003Z,95040.13
2022-09-04T04:05:48.253Z,95054.44
2022-09-04T04:08:47.249Z,95066.06
2022-09-04T04:11:50.640Z,95070.03
2022-09-04T04:14:38.488Z,95072.75
2022-09-04T04:17:23.532Z,95071.78
2022-09-04T04:20:13.404Z,95085.81
2022-09-04T04:23:01.157Z,95100.16
2022-09-04T04:25:54.167Z,95082.94
2022-09-04T04:28:39.467Z,95084.88
2022-09-04T04:31:21.064Z,95091.59
2022-09-04T04:34:02.361Z,95097.19
2022-09-04T04:36:40.250Z,95098.00
2022-09-04T04:39:12.002Z,95088.75
2022-09-04T04:42:07.147Z,95084.91
2022-09-04T04:45:15.606Z,95083.00
2022-09-04T04:48:00.853Z,95088.28
2022-09-04T04:50:46.255Z,95092.59
2022-09-04T04:53:30.765Z,95095.28
2022-09-04T04:56:04.062Z,95094.34
2022-09-04T04:58:57.086Z,95092.59
2022-09-04T05:01:44.140Z,95093.84
2022-09-04T05:04:17.951Z,95098.78
2022-09-04T05:07:10.763Z,95092.59
2022-09-04T05:09:44.858Z,95093.19
2022-09-04T05:12:19.296Z,95090.34
2022-09-04T05:14:52.775Z,95088.41
2022-09-04T05:17:46.037Z,95089.84
2022-09-04T05:20:48.895Z,95091.44
2022-09-04T05:23:44.934Z,95104.69
2022-09-04T05:26:17.628Z,95115.22
2022-09-04T05:28:49.047Z,95113.78
2022-09-04T05:31:22.526Z,95108.22
2022-09-04T05:33:55.669Z,95108.66
2022-09-04T05:36:50.882Z,95105.47
2022-09-04T05:39:25.267Z,95118.53
2022-09-04T05:42:11.095Z,95119.34
2022-09-04T05:44:56.604Z,95120.25
2022-09-04T05:47:43.863Z,95115.72
2022-09-04T05:50:37.212Z,95110.25
2022-09-04T05:53:36.518Z,95107.34
2022-09-04T05:56:38.515Z,95111.94
2022-09-04T05:59:31.284Z,95106.91
2022-09-04T06:02:18.534Z,95092.81
2022-09-04T06:05:21.436Z,95088.25
2022-09-04T06:08:17.667Z,95086.94
2022-09-04T06:11:04.753Z,95091.84
2022-09-04T06:13:45.855Z,95088.19
2022-09-04T06:16:40.840Z,95080.63
2022-09-04T06:19:24.409Z,95090.06
2022-09-04T06:22:21.304Z,95088.41
2022-09-04T06:25:06.301Z,95078.56
2022-09-04T06:27:58.882Z,95084.41
2022-09-04T06:30:30.685Z,95078.41
2022-09-04T06:33:08.941Z,95079.31
2022-09-04T06:35:50.995Z,95076.69
2022-09-04T06:38:36.561Z,95079.88
2022-09-04T06:41:18.894Z,95079.88
2022-09-04T06:44:24.084Z,95089.50
2022-09-04T06:47:11.143Z,95081.59
2022-09-04T06:50:16.690Z,95090.09
2022-09-04T06:53:09.973Z,95082.38
2022-09-04T06:56:13.665Z,95088.09
2022-09-04T07:32:33.899Z,95084.50
2022-09-04T07:35:09.047Z,95091.66
2022-09-04T07:37:58.977Z,95098.25
2022-09-04T07:40:38.360Z,95100.72
2022-09-04T07:43:25.572Z,95104.00
2022-09-04T07:46:01.500Z,95105.59
2022-09-04T07:48:32.219Z,95109.91
2022-09-04T07:51:10.924Z,95106.38
2022-09-04T07:54:04.502Z,95102.63
2022-09-04T07:56:49.523Z,95112.38
2022-09-04T07:59:39.733Z,95116.56
2022-09-04T08:02:22.814Z,95107.31
2022-09-04T08:05:16.720Z,95110.63
2022-09-04T08:07:51.989Z,95128.22
2022-09-04T08:10:44.996Z,95131.38
2022-09-04T08:13:44.007Z,95129.41
2022-09-04T08:16:43.227Z,95131.13
2022-09-04T08:19:28.605Z,95124.91
2022-09-04T08:21:57.082Z,95126.50
2022-09-04T08:24:53.386Z,95119.75
2022-09-04T08:27:44.446Z,95124.06
2022-09-04T08:30:13.723Z,95115.00
2022-09-04T08:33:07.156Z,95115.00
2022-09-04T08:35:35.276Z,95121.00
2022-09-04T08:38:31.562Z,95117.69
2022-09-04T08:41:17.185Z,95112.47
2022-09-04T08:44:10.228Z,95113.69
2022-09-04T08:46:55.756Z,95117.19
2022-09-04T08:49:45.692Z,95116.91
2022-09-04T08:52:48.007Z,95109.28
2022-09-04T08:55:51.796Z,95092.44
2022-09-04T08:58:37.494Z,95092.06
2022-09-04T09:01:23.157Z,95095.16
2022-09-04T09:04:25.560Z,95089.00
2022-09-04T09:07:11.255Z,95097.13
2022-09-04T09:10:17.376Z,95093.31
2022-09-04T09:40:36.970Z,95089.94
2022-09-04T09:43:31.940Z,95088.53
2022-09-04T09:46:14.923Z,95077.78
2022-09-04T10:06:02.910Z,95064.00
2022-09-04T10:08:51.811Z,95069.59
2022-09-04T10:11:45.857Z,95070.50
2022-09-04T10:14:31.887Z,95063.53
2022-09-04T10:17:22.969Z,95060.44
2022-09-04T10:28:41.654Z,95042.00
2022-09-04T10:31:27.236Z,95045.97
2022-09-04T10:34:12.325Z,95039.63
2022-09-04T10:37:02.001Z,95043.06
2022-09-04T10:40:07.763Z,95041.41
2022-09-04T10:42:54.818Z,95030.94
2022-09-04T10:45:33.065Z,95028.91
2022-09-04T10:48:18.413Z,95019.66
2022-09-04T10:51:05.873Z,95018.53
2022-09-04T10:53:44.266Z,95012.88
2022-09-04T10:56:16.831Z,95017.75
2022-09-04T10:59:03.945Z,95011.63
2022-09-04T11:01:56.696Z,95018.19
2022-09-04T11:04:45.972Z,95005.44
2022-09-04T11:07:29.339Z,95001.22
2022-09-04T11:10:16.297Z,95005.34
2022-09-04T11:12:56.635Z,95003.69
2022-09-04T11:15:58.619Z,95004.41
2022-09-04T11:18:34.797Z,94996.78
2022-09-04T11:21:21.743Z,94998.81
2022-09-04T11:24:07.725Z,94992.72
2022-09-04T11:26:55.030Z,94988.84
2022-09-04T11:29:41.390Z,94994.84
2022-09-04T11:32:32.079Z,94993.06
2022-09-04T11:35:18.128Z,94983.94
2022-09-04T11:38:07.810Z,94980.88
2022-09-04T11:40:55.458Z,94980.56
2022-09-04T11:43:54.872Z,94979.00
2022-09-04T11:46:51.299Z,94972.59
2022-09-04T11:49:47.448Z,94970.41
2022-09-04T11:52:32.081Z,94972.97
2022-09-04T11:55:08.594Z,94965.25
2022-09-04T11:57:44.772Z,94963.78
2022-09-04T12:00:17.088Z,94963.19
2022-09-04T12:03:04.096Z,94958.16
2022-09-04T12:05:50.875Z,94949.06
2022-09-04T12:08:39.593Z,94955.31
2022-09-04T12:11:25.250Z,94949.72
2022-09-04T12:14:04.139Z,94947.81
2022-09-04T12:16:47.436Z,94944.16
2022-09-04T12:19:43.826Z,94941.97
2022-09-04T12:22:31.279Z,94942.75
2022-09-04T12:25:18.375Z,94943.91
2022-09-04T12:28:11.810Z,94944.81
2022-09-04T12:30:58.930Z,94943.72
2022-09-04T12:33:46.718Z,94943.75
2022-09-04T13:07:56.779Z,94925.50
2022-09-04T13:10:48.391Z,94926.34
2022-09-04T13:13:31.221Z,94929.72
2022-09-04T13:16:16.676Z,94927.56
2022-09-04T13:19:07.333Z,94926.03
2022-09-04T13:21:51.583Z,94926.88
2022-09-04T13:24:32.006Z,94931.31
2022-09-04T13:27:28.044Z,94933.31
2022-09-04T13:30:08.679Z,94930.00
2022-09-04T13:32:55.568Z,94929.25
2022-09-04T13:35:47.639Z,94927.03
2022-09-04T13:38:32.955Z,94918.13
2022-09-04T13:41:30.603Z,94924.78
2022-09-04T13:44:39.406Z,94912.53
2022-09-04T13:47:12.251Z,94913.84
2022-09-04T13:49:42.613Z,94928.25
2022-09-04T13:52:13.084Z,94929.53
2022-09-04T13:54:42.881Z,94924.69
2022-09-04T13:57:21.441Z,94917.97
2022-09-04T13:59:50.376Z,94917.88
2022-09-04T14:02:24.615Z,94931.91
2022-09-04T14:04:54.732Z,94927.47
2022-09-04T14:07:29.833Z,94925.44
2022-09-04T14:09:58.530Z,94926.34
2022-09-04T14:12:36.799Z,94921.63
2022-09-04T14:15:32.987Z,94919.22
2022-09-04T14:18:14.137Z,94914.16
2022-09-04T14:20:52.054Z,94922.72
2022-09-04T14:23:27.760Z,94937.00
2022-09-04T14:26:09.906Z,94945.13
2022-09-04T14:28:53.846Z,94951.22
2022-09-04T14:31:27.435Z,94952.84
2022-09-04T14:34:13.931Z,94949.50
2022-09-04T14:37:01.234Z,94943.16
2022-09-04T14:39:52.708Z,94937.88
2022-09-04T14:42:27.414Z,94938.19
2022-09-04T14:45:13.353Z,94929.66
2022-09-04T14:47:53.766Z,94929.91
2022-09-04T14:50:24.702Z,94926.91
2022-09-04T14:52:59.290Z,94932.03
2022-09-04T14:55:40.303Z,94941.66
2022-09-04T14:58:29.972Z,94934.50
2022-09-04T15:01:26.400Z,94932.78
2022-09-04T15:03:57.268Z,94920.53
2022-09-04T15:06:32.486Z,94923.44
2022-09-04T15:09:39.561Z,94935.47
2022-09-04T15:12:42.090Z,94949.25
2022-09-04T15:15:32.446Z,94950.47
2022-09-04T15:18:18.161Z,94952.03
2022-09-04T15:20:58.935Z,94961.50
2022-09-04T15:23:45.932Z,94950.75
2022-09-04T15:26:46.696Z,94945.16
2022-09-04T15:29:22.699Z,94958.00
2022-09-04T15:31:59.809Z,94960.66
2022-09-04T15:34:27.787Z,94978.19
2022-09-04T15:36:54.759Z,94966.50
2022-09-04T15:39:29.493Z,94972.59
2022-09-04T15:41:56.299Z,94974.59
2022-09-04T15:44:29.907Z,94968.31
2022-09-04T15:47:06.618Z,94972.63
2022-09-04T15:49:52.914Z,94969.06
2022-09-04T15:52:40.864Z,94974.53
2022-09-04T15:55:26.146Z,94965.78
2022-09-04T15:58:04.928Z,94975.22
2022-09-04T16:00:35.112Z,94974.75
2022-09-04T16:03:31.088Z,94990.41
2022-09-04T16:06:01.110Z,94990.78
2022-09-04T16:08:46.509Z,94988.69
2022-09-04T16:11:35.052Z,94989.78
2022-09-04T16:14:22.157Z,94995.97
2022-09-04T16:16:53.240Z,94988.81
2022-09-04T16:19:30.357Z,94985.59
2022-09-04T16:22:18.457Z,95004.31
2022-09-04T16:24:52.146Z,95003.00
2022-09-04T16:27:21.354Z,95004.03
2022-09-04T16:29:53.350Z,95014.81
2022-09-04T16:32:22.392Z,95022.03
2022-09-04T16:34:53.038Z,95020.28
2022-09-04T16:37:42.543Z,95025.66
2022-09-04T16:40:38.653Z,95029.13
2022-09-04T16:43:34.689Z,95032.03
2022-09-04T16:46:25.531Z,95033.88
2022-09-04T16:48:58.193Z,95026.34
2022-09-04T16:51:41.026Z,95028.38
2022-09-04T16:54:31.858Z,95031.22
2022-09-04T16:57:12.374Z,95027.97
2022-09-04T16:59:57.476Z,95029.81
2022-09-04T17:02:48.977Z,95038.78
2022-09-04T17:05:19.947Z,95051.66
2022-09-04T17:07:59.135Z,95059.72
2022-09-04T17:10:36.155Z,95059.56
2022-09-04T17:13:13.018Z,95059.75
2022-09-04T17:15:53.544Z,95063.84
2022-09-04T17:18:25.630Z,95049.59
2022-09-04T17:26:34.618Z,95056.38
2022-09-04T17:29:04.100Z,95056.91
2022-09-04T17:29:08.800Z,95064.19
2022-09-04T17:30:51.154Z,95069.88
2022-09-04T17:37:37.042Z,95076.72
2022-09-04T17:40:34.727Z,95091.84
2022-09-04T17:40:46.827Z,95103.38
2022-09-04T17:42:26.613Z,95103.75
2022-09-04T17:45:01.884Z,95102.88
2022-09-04T17:47:38.282Z,95110.59
2022-09-04T17:50:11.394Z,95112.88
2022-09-04T17:52:58.977Z,95115.97
2022-09-04T17:55:27.063Z,95123.03
2022-09-04T17:58:15.502Z,95119.06
2022-09-04T18:01:15.179Z,95119.97
2022-09-04T18:04:20.898Z,95123.69
2022-09-04T18:06:57.271Z,95131.00
2022-09-04T18:09:50.420Z,95113.72
2022-09-04T18:12:25.395Z,95120.69
2022-09-04T18:15:33.651Z,95136.31
2022-09-04T18:18:27.676Z,95131.63
2022-09-04T18:21:08.556Z,95132.25
2022-09-04T18:23:55.618Z,95130.31
2022-09-04T18:26:40.105Z,95126.09
2022-09-04T18:33:46.019Z,95124.41
2022-09-04T18:37:10.140Z,95121.84
2022-09-04T18:37:20.788Z,95128.28
2022-09-04T18:38:30.786Z,95129.44
2022-09-04T18:44:11.850Z,95132.66
2022-09-04T18:50:30.524Z,95125.88
2022-09-04T18:50:45.998Z,95121.97
2022-09-04T18:50:51.557Z,95132.91
2022-09-04T18:52:14.003Z,95127.81
2022-09-04T18:54:49.449Z,95121.91
2022-09-04T18:57:51.936Z,95116.34
2022-09-04T19:00:27.497Z,95116.78
2022-09-04T19:03:00.804Z,95119.09
2022-09-04T19:05:44.943Z,95123.28
2022-09-04T19:08:21.964Z,95129.44
2022-09-04T19:10:54.889Z,95122.13
2022-09-04T19:13:31.670Z,95121.44
2022-09-04T19:16:09.084Z,95124.44
2022-09-04T19:18:46.933Z,95125.00
2022-09-04T19:21:23.681Z,95131.53
2022-09-04T19:24:13.960Z,95134.25
2022-09-04T19:27:00.983Z,95131.97
2022-09-04T19:29:56.789Z,95129.69
2022-09-04T19:33:22.384Z,95142.28
2022-09-04T19:35:53.988Z,95139.31
2022-09-04T19:46:02.898Z,95139.66
2022-09-04T19:46:07.639Z,95151.03
2022-09-04T19:46:15.633Z,95153.41
2022-09-04T19:47:28.696Z,95149.91
2022-09-04T19:53:19.482Z,95154.22
2022-09-04T19:53:40.658Z,95153.19
2022-09-04T19:55:55.823Z,95149.53
2022-09-04T19:58:36.202Z,95151.84
2022-09-04T20:01:03.894Z,95152.28
2022-09-04T20:03:50.523Z,95148.31
2022-09-04T20:06:24.542Z,95149.81
2022-09-04T20:09:09.888Z,95154.81
2022-09-04T20:11:46.131Z,95149.34
2022-09-04T20:14:36.076Z,95148.66
2022-09-04T20:17:23.112Z,95155.72
2022-09-04T20:19:55.934Z,95151.03
2022-09-04T20:22:32.281Z,95142.50
2022-09-04T20:25:19.273Z,95143.28
2022-09-04T20:27:54.163Z,95145.56
2022-09-04T20:30:24.986Z,95152.88
2022-09-04T20:33:11.853Z,95146.88
2022-09-04T20:35:52.556Z,95146.78
2022-09-04T20:38:30.641Z,95142.13
2022-09-04T20:41:02.726Z,95149.72
2022-09-04T20:43:46.943Z,95153.16
2022-09-04T20:51:07.659Z,95156.47
2022-09-04T20:52:55.883Z,95148.53
2022-09-04T20:53:10.668Z,95150.81
2022-09-04T20:56:08.375Z,95140.44
2022-09-04T21:03:10.665Z,95146.94
2022-09-04T21:03:21.362Z,95149.47
2022-09-04T21:04:43.653Z,95150.16
2022-09-04T21:07:29.096Z,95148.34
2022-09-04T21:10:18.931Z,95140.84
2022-09-04T21:12:49.750Z,95146.31
2022-09-04T21:15:42.898Z,95144.72
2022-09-04T21:18:19.600Z,95151.31
2022-09-04T21:21:05.045Z,95151.31
2022-09-04T21:24:02.806Z,95152.91
2022-09-04T21:26:56.159Z,95155.75
2022-09-04T21:29:43.345Z,95150.97
2022-09-04T21:32:22.936Z,95148.69
2022-09-04T21:34:57.600Z,95158.81
2022-09-04T21:37:50.539Z,95154.03
2022-09-04T21:40:50.891Z,95157.91
2022-09-04T21:43:42.081Z,95168.38
2022-09-04T21:46:21.319Z,95164.75
2022-09-04T21:49:26.274Z,95173.16
2022-09-04T21:52:12.575Z,95171.44
2022-09-04T21:57:23.881Z,95173.69
2022-09-04T22:02:30.673Z,95179.16
2022-09-04T22:02:44.602Z,95173.84
2022-09-04T22:04:44.507Z,95174.28
2022-09-04T22:11:19.446Z,95169.06
2022-09-04T22:13:42.098Z,95170.31
2022-09-04T22:13:55.153Z,95168.38
2022-09-04T22:16:49.098Z,95166.44
2022-09-04T22:19:34.713Z,95165.63
2022-09-04T22:22:25.668Z,95160.53
2022-09-04T22:25:11.211Z,95157.47
2022-09-04T22:28:08.489Z,95162.47
2022-09-04T22:31:10.453Z,95164.75
2022-09-04T22:34:15.706Z,95165.31
2022-09-04T22:37:02.019Z,95168.50
2022-09-04T22:39:51.844Z,95166.22
2022-09-04T22:42:37.218Z,95168.59
2022-09-04T22:45:22.641Z,95167.91
2022-09-04T22:48:02.044Z,95171.88
2022-09-04T22:51:01.215Z,95179.72
2022-09-04T22:53:54.172Z,95169.50
2022-09-04T22:56:40.507Z,95164.97
2022-09-04T22:59:27.043Z,95169.84
2022-09-04T23:02:14.147Z,95165.19
2022-09-04T23:05:07.102Z,95165.19
2022-09-04T23:13:44.440Z,95172.03
2022-09-04T23:13:53.063Z,95167.56
2022-09-04T23:14:06.693Z,95179.06
2022-09-04T23:16:52.944Z,95178.59
2022-09-04T23:26:30.989Z,95180.09
2022-09-04T23:26:36.991Z,95176.09
2022-09-04T23:29:03.112Z,95172.00
2022-09-04T23:31:51.819Z,95161.31
2022-09-04T23:34:40.258Z,95165.88
2022-09-04T23:37:40.024Z,95165.13
2022-09-04T23:40:27.592Z,95170.25
2022-09-04T23:43:26.708Z,95177.81
2022-09-04T23:46:13.794Z,95175.00
2022-09-04T23:49:05.566Z,95172.81
2022-09-04T23:51:47.117Z,95176.31
2022-09-04T23:54:32.668Z,95176.88
2022-09-04T23:57:11.154Z,95181.50
